ADDS METAR Data INFO
IDs: Format: Raw Decoded Include TAF

Data at: 0559 UTC 25 Jun 2018

KCDS 250553Z AUTO 16014G21KT 10SM CLR 30/17 A2975 RMK AO2 SLP041 T03000167 10322 20250 403390233 55002
KCDS 250453Z AUTO 14015KT 10SM CLR 26/19 A2971 RMK AO2 SLP031 T02560194
KCDS 250353Z AUTO 10009KT 10SM CLR 27/20 A2977 RMK AO2 SLP051 T02670200
KCDS 250253Z AUTO 10012G19KT 10SM CLR 28/20 A2976 RMK AO2 SLP046 T02830200 53007
KCDS 250153Z AUTO 10012G19KT 10SM CLR 29/19 A2974 RMK AO2 SLP042 T02940194
KCDS 250053Z AUTO 10016G25KT 10SM CLR 31/19 A2974 RMK AO2 SLP040 T03110194
KCDS 242353Z AUTO 11016G26KT 10SM CLR 32/19 A2974 RMK AO2 PK WND 12026/2350 SLP040 T03220194 10339 20283 58011
KCDS 242253Z AUTO 10017G24KT 10SM CLR 33/20 A2975 RMK AO2 PK WND 09027/2237 SLP044 T03280200
KCDS 242153Z AUTO 09017G26KT 10SM CLR 33/20 A2977 RMK AO2 PK WND 09027/2120 SLP048 T03280200
KCDS 242053Z AUTO 09015G25KT 10SM CLR 31/19 A2977 RMK AO2 PK WND 08029/2013 SLP051 T03110194 58011
KCDS 241953Z AUTO 07015G24KT 10SM CLR 29/19 A2979 RMK AO2 PK WND 05029/1855 SLP057 T02940194
KCDS 241853Z AUTO 06023G30KT 10SM FEW050 BKN060 29/19 A2980 RMK AO2 PK WND 05030/1852 SLP062 T02890189
KCDS 241753Z AUTO VRB06KT 10SM FEW047 BKN065 33/22 A2981 RMK AO2 SLP060 T03330217 10333 20233 53007
KCDS 241653Z AUTO 17012KT 10SM CLR 33/22 A2978 RMK AO2 SLP050 T03280217
KCDS 241553Z AUTO 14010KT 10SM SCT046 30/21 A2979 RMK AO2 SLP056 T03000211
KCDS 241453Z AUTO 12009KT 10SM CLR 29/20 A2978 RMK AO2 SLP053 T02940200 53003
KCDS 241353Z AUTO 14013KT 10SM CLR 27/21 A2976 RMK AO2 SLP045 T02720206
KCDS 241253Z AUTO 11012KT 10SM CLR 24/21 A2977 RMK AO2 SLP050 T02440206
KCDS 241153Z AUTO 09009KT 10SM CLR 23/21 A2977 RMK AO2 SLP052 T02330206 10278 20233 51026
KCDS 241053Z AUTO 07006KT 10SM CLR 24/20 A2977 RMK AO2 SLP049 T02390200
KCDS 240953Z AUTO 16003KT 10SM CLR 25/18 A2972 RMK AO2 SLP033 T02500178
KCDS 240853Z AUTO 20008KT 10SM CLR 25/19 A2969 RMK AO2 SLP023 T02500189 58012
KCDS 240753Z AUTO 19010KT 10SM CLR 27/19 A2969 RMK AO2 SLP023 T02670189
KCDS 240653Z AUTO 14008KT 10SM CLR 27/19 A2973 RMK AO2 SLP037 T02670194
KCDS 240553Z AUTO 12012KT 10SM CLR 28/20 A2973 RMK AO2 SLP036 T02780200 10339 20278 403390194 51001
KCDS 240453Z AUTO 11010KT 10SM CLR 28/21 A2973 RMK AO2 SLP036 T02830206
KCDS 240353Z AUTO 11011G17KT 10SM CLR 29/21 A2973 RMK AO2 SLP037 T02940211
KCDS 240253Z AUTO 11007KT 10SM CLR 31/21 A2973 RMK AO2 SLP036 T03060211 55003
KCDS 240153Z AUTO 11006KT 10SM CLR 32/21 A2971 RMK AO2 SLP032 T03170211
KCDS 240053Z AUTO 10004KT 10SM CLR 33/21 A2971 RMK AO2 SLP032 T03330206
KCDS 232353Z AUTO 15007KT 10SM CLR 33/21 A2974 RMK AO2 SLP041 T03330206 10339 20306 58013
KCDS 232253Z AUTO 11005KT 10SM FEW065 33/18 A2976 RMK AO2 SLP047 T03330183
KCDS 232153Z AUTO 20006KT 10SM FEW080 33/19 A2977 RMK AO2 SLP052 T03330189
KCDS 232053Z AUTO 16008KT 10SM FEW050 33/21 A2978 RMK AO2 SLP055 T03280206 56020
KCDS 231953Z AUTO 13009G16KT 10SM FEW047 32/21 A2979 RMK AO2 SLP062 T03170211
KCDS 231853Z AUTO 17010G18KT 10SM BKN046 BKN065 31/20 A2982 RMK AO2 SLP069 T03110200